Brighton, MI

12:54 AM EDT on May 23, 2015 (GMT -0400)
Willow Run | | Change Station
CLOSE
Current Station
Airport
Location: Ypsilanti,
Elevation: 715 ft
Nearby Weather Stations
Active Advisory: Frost Advisory

Elev 715 ft 42.24 °N, 83.53 °W | Updated 1 hour ago

Partly Cloudy
Partly Cloudy
50 °F
Feels Like 50 °F
N
10
Wind Variable Wind from NE

Today
High -- | Low -- °F
--% Chance of Precip.
Yesterday
High -- | Low -- °F
Precip. -- in
6:06 AM 8:57 PM
Waxing Crescent, 27% visible
Pressure 30.33 in
Visibility 10.0 miles
Clouds Clear
Dew Point 32 °F
Humidity 50%
Rainfall 0.00 in
Snow Depth Not available.
UV 0 out of 12
Pollen 9.10 out of 12
Air Quality Not available.
Flu Activity Sporadic
METAR KYIP 230353Z AUTO 04009KT 10SM CLR 10/00 A3033 RMK AO2 SLP270 T01000000 TSNO

More Conditions Fewer Conditions

Pressure 30.33 in
Visibility 10.0 miles
Clouds Clear
Dew Point 32 °F
Humidity 50%
Rainfall 0.00 in
Snow Depth Not available.
UV 0 out of 12
Pollen 9.10 out of 12
Air Quality Not available.
Flu Activity Sporadic
METAR KYIP 230353Z AUTO 04009KT 10SM CLR 10/00 A3033 RMK AO2 SLP270 T01000000 TSNO

More Conditions Fewer Conditions

10-Day Weather Forecast

Almanac

Astronomy

May. 23, 2015 Rise Set
Actual Time
Civil Twilight
Nautical Twilight
Astronomical Twilight
Moon
Length of Visible Light
Length of Day
Tomorrow will be .
, % of the Moon is Illuminated

Today's Extremes

State Highs State Lows

Community

WunderPhotos

Upload Photos

1,823,387 photos uploaded!

WunderBlogs® & News

Nearby

Air Quality

  Air Quality AQ Index Pollutant
Not available.

Snow Depth

Station Depth Elevation

Earthquake Activity

City Distance Mag. Time & Date
Minimum magnitude displayed is 2.5.

Coastal Water Temperatures

Place Temperature

Stations

Nearby Weather Stations

Station Location Temp. Windchill Dew Point Humidity Wind Precip. Elev Updated Type
                   
Frost Advisory
Statement as of 10:12 PM EDT on May 22, 2015

... Frost advisory remains in effect from 2 am to 8 am EDT
Saturday...

Hazardous weather...

* clear skies... light winds and very dry air will lead to a cold
   night. Frost will develop overnight.

* Low temperatures will range from 30 to 36.

Impacts...

* sensitive vegetation may be damaged by frost.

Precautionary/preparedness actions...

* a frost advisory means that frost is possible. Sensitive
   outdoor plants may be killed if left uncovered.



SC